Whitecap — WDE6339 — position and weather

sailwx.info

Track history (hours):
 
Tides and Currents Weather Stations Pressure Air Temp Water Temp Dewpoint Dewpoint Depression Visibility Wind Speed Wind Dir Waves Ship Positions

Whitecap

Owner: Colby, Raymond G, Port Ludlow, WA. More information available from US FCC via Universal Licensing System and Coast Guard Vessel Documentation Center.

Last reported at 2018-May-13 16:47 UTC. Time now 2018-Jul-21 03:52 UTC.
Position N 47°53' W 122°30'.
Warning: this ship's position is months out of date.

Length 17 m.

Type: Pleasure craft. MMSI: 367378970.

Date/timePositionNaut miles runAvg speedWind from/ knotsBaromVisibWave heightAir tempDewpointWater temp
2018-May-13 16:47N 47°53' W 122°30'310.7
2018-May-13 16:31N 47°51' W 122°29'5 9.8
2018-May-13 15:57N 47°45' W 122°28'  
2018-May-10 18:38N 47°44' W 122°30'4 9.2
2018-May-10 18:11N 47°48' W 122°28'210.0
2018-May-10 18:00N 47°49' W 122°28'5 9.3
2018-May-10 17:30N 47°54' W 122°30'  
2018-May-06 17:24N 47°54' W 122°31'410.4
2018-May-06 17:00N 47°50' W 122°29'5 9.9
2018-May-06 16:30N 47°46' W 122°27'5 9.2
2018-May-06 15:59N 47°41' W 122°25'1 2.6
2018-May-06 15:27N 47°40' W 122°24'0 0.0
2018-May-06 15:00N 47°40' W 122°24'1 2.3
2018-May-06 14:30N 47°39' W 122°22'  
2018-May-03 17:16N 47°39' W 122°20'2 6.4
2018-May-03 16:57N 47°40' W 122°23'  
Track history (hours):
 
Tides and Currents Weather Stations Pressure Air Temp Water Temp Dewpoint Dewpoint Depression Visibility Wind Speed Wind Dir Waves Ship Positions

Whitecap

Owner: Colby, Raymond G, Port Ludlow, WA. More information available from US FCC via Universal Licensing System and Coast Guard Vessel Documentation Center.

Last reported at 2018-May-13 16:47 UTC. Time now 2018-Jul-21 03:52 UTC.
Position N 47°53' W 122°30'.
Warning: this ship's position is months out of date.

Length 17 m.

Type: Pleasure craft. MMSI: 367378970.

Date/timePositionNaut miles runAvg speedWind from/ knotsBaromVisibWave heightAir tempDewpointWater temp
2018-May-13 16:47N 47°53' W 122°30'310.7
2018-May-13 16:31N 47°51' W 122°29'5 9.8
2018-May-13 15:57N 47°45' W 122°28'  
2018-May-10 18:38N 47°44' W 122°30'4 9.2
2018-May-10 18:11N 47°48' W 122°28'210.0
2018-May-10 18:00N 47°49' W 122°28'5 9.3
2018-May-10 17:30N 47°54' W 122°30'  
2018-May-06 17:24N 47°54' W 122°31'410.4
2018-May-06 17:00N 47°50' W 122°29'5 9.9
2018-May-06 16:30N 47°46' W 122°27'5 9.2
2018-May-06 15:59N 47°41' W 122°25'1 2.6
2018-May-06 15:27N 47°40' W 122°24'0 0.0
2018-May-06 15:00N 47°40' W 122°24'1 2.3
2018-May-06 14:30N 47°39' W 122°22'  
2018-May-03 17:16N 47°39' W 122°20'2 6.4
2018-May-03 16:57N 47°40' W 122°23'  

Dump ship's entire track history